Time;durP1;ratioP1;P1;durP2;ratioP2;P2;SDS_P1;SDS_P2;PMS_P1;PMS_P2;Temp;Humidity;BMP_temperature;BMP_pressure;BME280_temperature;BME280_humidity;BME280_pressure;Samples;Min_cycle;Max_cycle;Signal;HPM_P1;HPM_P2
2024/04/16 00:03:40;;;;;;;5.40;3.00;;;;;;;;;;10736931;26;20110;-66
2024/04/16 00:08:35;;;;;;;9.77;3.53;;;;;;;;;;10767328;26;20000;-66
2024/04/16 00:13:29;;;;;;;12.48;3.97;;;;;;;;;;10763563;26;20004;-66
2024/04/16 00:18:46;;;;;;;8.10;3.40;;;;;;;;;;10760457;26;20018;-66
2024/04/16 00:23:40;;;;;;;9.32;4.97;;;;;;;;;;10766230;26;20004;-66
2024/04/16 00:28:35;;;;;;;14.88;3.90;;;;;;;;;;10765375;26;20000;-65
2024/04/16 00:33:29;;;;;;;11.80;4.25;;;;;;;;;;10767177;26;20000;-65
2024/04/16 00:38:23;;;;;;;9.90;3.78;;;;;;;;;;10763792;26;20005;-65
2024/04/16 00:43:18;;;;;;;11.30;4.35;;;;;;;;;;10751213;26;20004;-65
2024/04/16 00:48:12;;;;;;;21.65;7.85;;;;;;;;;;10767053;26;20086;-65
2024/04/16 00:53:07;;;;;;;9.90;3.40;;;;;;;;;;10762476;26;20039;-65
2024/04/16 00:58:01;;;;;;;9.35;3.80;;;;;;;;;;10763736;26;20015;-65
2024/04/16 01:02:55;;;;;;;7.32;3.10;;;;;;;;;;10754360;26;20337;-64
2024/04/16 01:07:49;;;;;;;5.78;3.63;;;;;;;;;;10766697;26;20367;-65
2024/04/16 01:12:44;;;;;;;11.07;3.60;;;;;;;;;;10759070;26;20008;-65
2024/04/16 01:17:40;;;;;;;10.18;3.58;;;;;;;;;;10763663;26;20478;-65
2024/04/16 01:22:34;;;;;;;9.73;4.05;;;;;;;;;;10767655;26;20341;-66
2024/04/16 01:27:29;;;;;;;9.13;3.78;;;;;;;;;;10766216;26;20000;-66
2024/04/16 01:32:23;;;;;;;9.43;3.35;;;;;;;;;;10767597;26;20004;-64
2024/04/16 01:37:17;;;;;;;12.35;3.30;;;;;;;;;;10763144;26;20040;-65
2024/04/16 01:42:11;;;;;;;16.17;3.40;;;;;;;;;;10763532;26;20014;-67
2024/04/16 01:47:05;;;;;;;11.30;3.75;;;;;;;;;;10764632;26;20329;-65
2024/04/16 01:51:59;;;;;;;8.43;3.22;;;;;;;;;;10764468;26;20057;-65
2024/04/16 01:56:53;;;;;;;8.32;3.08;;;;;;;;;;10763570;26;20020;-65
2024/04/16 02:01:47;;;;;;;12.02;2.70;;;;;;;;;;10762830;26;20020;-65
2024/04/16 02:06:42;;;;;;;5.97;3.05;;;;;;;;;;10765052;26;20083;-64
2024/04/16 02:11:36;;;;;;;13.23;3.50;;;;;;;;;;10763239;26;20011;-66
2024/04/16 02:16:30;;;;;;;6.68;3.08;;;;;;;;;;10753943;26;20005;-65
2024/04/16 02:21:25;;;;;;;8.60;3.35;;;;;;;;;;10756038;26;20004;-65
2024/04/16 02:26:19;;;;;;;7.22;2.80;;;;;;;;;;10761889;26;20031;-66
2024/04/16 02:31:13;;;;;;;7.65;2.90;;;;;;;;;;10764641;26;20318;-65
2024/04/16 02:36:07;;;;;;;11.38;3.28;;;;;;;;;;10756998;26;20436;-65
2024/04/16 02:41:02;;;;;;;13.27;4.65;;;;;;;;;;10757451;26;20658;-65
2024/04/16 02:45:57;;;;;;;8.00;3.70;;;;;;;;;;10761854;26;20004;-66
2024/04/16 02:50:52;;;;;;;6.68;3.10;;;;;;;;;;10768217;26;20012;-66
2024/04/16 02:55:46;;;;;;;7.28;3.83;;;;;;;;;;10771869;26;20036;-66
2024/04/16 03:00:40;;;;;;;12.38;3.13;;;;;;;;;;10769579;26;20008;-66
2024/04/16 03:05:35;;;;;;;7.57;3.22;;;;;;;;;;10768288;26;20000;-65
2024/04/16 03:10:30;;;;;;;8.60;3.22;;;;;;;;;;10768455;26;20013;-66
2024/04/16 03:15:25;;;;;;;4.85;3.55;;;;;;;;;;10770465;26;20451;-65
2024/04/16 03:20:19;;;;;;;7.38;3.22;;;;;;;;;;10761645;26;20012;-65
2024/04/16 03:25:13;;;;;;;8.45;4.25;;;;;;;;;;10767254;26;20004;-69
2024/04/16 03:30:10;;;;;;;5.53;3.00;;;;;;;;;;10770765;26;20019;-69
2024/04/16 03:35:05;;;;;;;11.57;3.00;;;;;;;;;;10768608;26;20334;-71
2024/04/16 03:39:58;;;;;;;3.70;2.10;;;;;;;;;;10781918;26;20336;-70
2024/04/16 03:45:12;;;;;;;6.53;3.08;;;;;;;;;;10813900;26;20018;-69
2024/04/16 03:50:07;;;;;;;6.25;2.67;;;;;;;;;;10812295;26;20018;-70
2024/04/16 03:55:01;;;;;;;4.97;2.42;;;;;;;;;;10819899;26;20085;-69
2024/04/16 04:05:09;;;;;;;7.80;2.60;;;;;;;;;;10819165;26;20003;-69
2024/04/16 04:10:06;;;;;;;5.28;2.92;;;;;;;;;;10795040;26;20333;-69
2024/04/16 04:15:00;;;;;;;8.75;2.75;;;;;;;;;;10797209;26;20004;-69
2024/04/16 04:19:55;;;;;;;6.97;4.03;;;;;;;;;;10771107;26;20359;-69
2024/04/16 04:24:50;;;;;;;10.07;4.22;;;;;;;;;;10773146;26;20004;-69
2024/04/16 04:29:44;;;;;;;9.32;5.97;;;;;;;;;;10783677;26;20004;-69
2024/04/16 04:34:37;;;;;;;11.82;3.58;;;;;;;;;;10785536;26;20004;-69
2024/04/16 04:39:32;;;;;;;11.20;3.33;;;;;;;;;;10783420;26;20058;-69
2024/04/16 04:44:26;;;;;;;9.88;4.65;;;;;;;;;;10772264;26;20012;-65
2024/04/16 04:49:21;;;;;;;6.22;3.83;;;;;;;;;;10770404;26;20014;-64
2024/04/16 04:54:16;;;;;;;6.68;3.67;;;;;;;;;;10779780;26;20004;-65
2024/04/16 04:59:09;;;;;;;4.93;3.50;;;;;;;;;;10801085;26;20004;-65
2024/04/16 05:04:03;;;;;;;8.85;3.65;;;;;;;;;;10784367;26;20004;-65
2024/04/16 05:08:59;;;;;;;12.43;3.38;;;;;;;;;;10786316;26;20009;-65
2024/04/16 05:13:53;;;;;;;3.53;2.40;;;;;;;;;;10798894;26;20003;-65
2024/04/16 05:18:48;;;;;;;2.72;2.30;;;;;;;;;;10809221;26;20003;-65
2024/04/16 05:23:44;;;;;;;11.48;4.03;;;;;;;;;;10821178;26;20019;-72
2024/04/16 05:28:40;;;;;;;7.88;2.38;;;;;;;;;;10798010;26;20048;-71
2024/04/16 05:33:33;;;;;;;8.75;3.78;;;;;;;;;;10768397;26;20085;-72
2024/04/16 05:38:28;;;;;;;10.25;5.43;;;;;;;;;;10759399;26;20424;-72
2024/04/16 05:43:23;;;;;;;8.43;3.97;;;;;;;;;;10754857;26;20004;-71
2024/04/16 05:48:17;;;;;;;12.55;5.10;;;;;;;;;;10768204;26;20015;-72
2024/04/16 05:53:11;;;;;;;8.75;3.55;;;;;;;;;;10753661;26;20449;-72
2024/04/16 05:58:07;;;;;;;6.68;2.60;;;;;;;;;;10768554;26;20012;-71
2024/04/16 06:03:01;;;;;;;6.57;2.33;;;;;;;;;;10770950;26;20458;-65
2024/04/16 06:07:56;;;;;;;7.22;2.10;;;;;;;;;;10817654;26;20004;-65
2024/04/16 06:12:51;;;;;;;4.20;2.08;;;;;;;;;;10791560;26;20447;-65
2024/04/16 06:17:45;;;;;;;4.40;2.50;;;;;;;;;;10801091;26;20487;-65
2024/04/16 06:22:42;;;;;;;3.15;2.08;;;;;;;;;;10828895;26;20448;-66
2024/04/16 06:27:54;;;;;;;7.97;2.40;;;;;;;;;;10826519;26;20448;-65
2024/04/16 06:32:48;;;;;;;7.82;3.42;;;;;;;;;;10828702;26;20023;-65
2024/04/16 06:37:43;;;;;;;13.50;3.15;;;;;;;;;;10785227;26;20345;-68
2024/04/16 06:42:38;;;;;;;5.82;3.10;;;;;;;;;;10763394;26;20004;-65
2024/04/16 06:47:33;;;;;;;4.70;2.22;;;;;;;;;;10760075;26;20373;-65
2024/04/16 06:52:29;;;;;;;19.70;3.97;;;;;;;;;;10762851;26;20004;-65
2024/04/16 06:57:24;;;;;;;10.68;3.33;;;;;;;;;;10772801;26;20078;-65
2024/04/16 07:02:18;;;;;;;9.00;2.55;;;;;;;;;;10767907;26;20011;-65
2024/04/16 07:07:13;;;;;;;12.40;4.72;;;;;;;;;;10756696;26;20078;-66
2024/04/16 07:12:08;;;;;;;13.75;5.50;;;;;;;;;;10760834;26;20004;-66
2024/04/16 07:17:03;;;;;;;11.82;5.78;;;;;;;;;;10757451;26;20456;-65
2024/04/16 07:21:57;;;;;;;17.25;5.63;;;;;;;;;;10765493;26;20821;-65
2024/04/16 07:26:51;;;;;;;11.75;7.03;;;;;;;;;;10753803;26;20004;-65
2024/04/16 07:31:46;;;;;;;20.30;6.45;;;;;;;;;;10773223;26;20015;-65
2024/04/16 07:36:43;;;;;;;41.58;8.02;;;;;;;;;;10761358;26;20027;-65
2024/04/16 07:41:36;;;;;;;13.95;6.32;;;;;;;;;;10769842;26;20370;-65
2024/04/16 07:46:33;;;;;;;11.40;4.68;;;;;;;;;;10770378;26;20013;-65
2024/04/16 07:51:28;;;;;;;12.38;4.10;;;;;;;;;;10766556;26;20016;-66
2024/04/16 07:56:23;;;;;;;10.57;5.20;;;;;;;;;;10767135;26;20458;-66
2024/04/16 08:01:16;;;;;;;10.43;4.35;;;;;;;;;;10766543;26;20000;-64
2024/04/16 08:06:11;;;;;;;12.80;4.82;;;;;;;;;;10771369;26;20015;-67
2024/04/16 08:11:12;;;;;;;7.70;3.35;;;;;;;;;;10772070;26;20445;-65
2024/04/16 08:16:07;;;;;;;10.18;4.22;;;;;;;;;;10763154;26;20011;-65
2024/04/16 08:21:02;;;;;;;12.43;3.60;;;;;;;;;;10761642;26;20000;-64
2024/04/16 08:26:04;;;;;;;9.82;3.65;;;;;;;;;;10766271;26;20405;-65
2024/04/16 08:31:04;;;;;;;7.93;2.43;;;;;;;;;;10764459;26;20004;-66
2024/04/16 08:35:59;;;;;;;5.30;1.33;;;;;;;;;;10764691;26;20043;-65
2024/04/16 08:40:56;;;;;;;6.05;1.80;;;;;;;;;;10771710;26;20329;-65
2024/04/16 08:45:52;;;;;;;7.90;2.08;;;;;;;;;;10781482;26;20086;-66
2024/04/16 08:50:45;;;;;;;6.55;1.60;;;;;;;;;;10764304;26;20322;-65
2024/04/16 08:55:41;;;;;;;3.55;1.50;;;;;;;;;;10748954;26;20004;-66
2024/04/16 09:00:36;;;;;;;;;;;;;;;;;;10767898;26;20016;-66
2024/04/16 09:05:32;;;;;;;7.40;1.85;;;;;;;;;;10760396;26;19925;-65
2024/04/16 09:10:26;;;;;;;6.07;2.10;;;;;;;;;;10771316;26;20554;-66
2024/04/16 09:15:21;;;;;;;5.85;1.88;;;;;;;;;;10804316;26;20237;-67
2024/04/16 09:20:17;;;;;;;5.88;1.75;;;;;;;;;;10822850;26;20008;-65
2024/04/16 09:25:11;;;;;;;8.77;2.72;;;;;;;;;;10787935;26;20004;-65
2024/04/16 09:30:12;;;;;;;7.25;1.92;;;;;;;;;;10799320;26;20461;-66
2024/04/16 09:35:09;;;;;;;7.25;1.38;;;;;;;;;;10802270;26;20004;-66
2024/04/16 09:40:04;;;;;;;6.15;1.73;;;;;;;;;;10795013;26;20018;-66
2024/04/16 09:44:58;;;;;;;7.20;1.48;;;;;;;;;;10732748;26;20050;-67
2024/04/16 09:49:56;;;;;;;5.75;1.30;;;;;;;;;;10765204;26;20012;-66
2024/04/16 09:55:09;;;;;;;9.38;3.03;;;;;;;;;;10751221;26;20000;-66
2024/04/16 10:00:05;;;;;;;6.95;1.63;;;;;;;;;;10766267;26;20016;-65
2024/04/16 10:05:01;;;;;;;7.05;2.15;;;;;;;;;;10765365;26;20011;-65
2024/04/16 10:09:55;;;;;;;9.30;2.85;;;;;;;;;;10761154;26;20081;-66
2024/04/16 10:14:50;;;;;;;6.18;2.00;;;;;;;;;;10775696;26;20440;-66
2024/04/16 10:19:44;;;;;;;7.40;1.80;;;;;;;;;;10766378;26;20401;-66
2024/04/16 10:24:52;;;;;;;5.93;2.03;;;;;;;;;;10761428;26;20004;-73
2024/04/16 10:29:46;;;;;;;10.88;1.75;;;;;;;;;;10764242;26;20405;-72
2024/04/16 10:34:42;;;;;;;8.00;1.63;;;;;;;;;;10765872;26;20044;-71
2024/04/16 10:39:36;;;;;;;6.75;1.58;;;;;;;;;;10758798;26;20000;-73
2024/04/16 10:44:33;;;;;;;10.40;2.20;;;;;;;;;;10760857;26;20005;-72
2024/04/16 10:49:33;;;;;;;7.60;2.13;;;;;;;;;;10760689;26;20041;-72
2024/04/16 10:54:27;;;;;;;4.57;1.27;;;;;;;;;;10761260;26;20004;-72
2024/04/16 10:59:25;;;;;;;5.35;1.10;;;;;;;;;;10762363;26;20078;-72
2024/04/16 11:04:19;;;;;;;6.10;1.40;;;;;;;;;;10763988;26;20000;-66
2024/04/16 11:09:14;;;;;;;7.43;2.60;;;;;;;;;;10766918;26;20014;-66
2024/04/16 11:14:08;;;;;;;9.98;1.65;;;;;;;;;;10780795;26;20008;-66
2024/04/16 11:19:02;;;;;;;4.38;1.60;;;;;;;;;;10767911;26;20510;-65
2024/04/16 11:24:00;;;;;;;5.72;1.73;;;;;;;;;;10768199;26;20032;-65
2024/04/16 11:28:54;;;;;;;5.38;1.15;;;;;;;;;;10766139;26;20015;-67
2024/04/16 11:33:48;;;;;;;6.78;2.22;;;;;;;;;;10756620;26;20012;-65
2024/04/16 11:38:42;;;;;;;6.60;1.65;;;;;;;;;;10766893;26;20015;-67
2024/04/16 11:43:36;;;;;;;5.47;1.77;;;;;;;;;;10764003;26;20015;-67
2024/04/16 11:48:33;;;;;;;6.53;1.63;;;;;;;;;;10754272;26;20032;-65
2024/04/16 11:53:28;;;;;;;7.55;1.33;;;;;;;;;;10727989;26;20005;-67
2024/04/16 11:58:22;;;;;;;13.50;2.47;;;;;;;;;;10762963;26;19996;-66
2024/04/16 12:03:17;;;;;;;4.60;1.35;;;;;;;;;;10767497;26;20019;-66
2024/04/16 12:08:12;;;;;;;4.65;1.30;;;;;;;;;;10764152;26;20004;-66
2024/04/16 12:13:07;;;;;;;8.75;2.22;;;;;;;;;;10765217;26;20332;-65
2024/04/16 12:18:01;;;;;;;5.85;1.92;;;;;;;;;;10741008;26;20406;-65
2024/04/16 12:22:54;;;;;;;2.88;1.30;;;;;;;;;;10762046;26;20015;-65
2024/04/16 12:27:49;;;;;;;2.72;1.27;;;;;;;;;;10760357;26;20012;-66
2024/04/16 12:32:44;;;;;;;4.20;1.30;;;;;;;;;;10766129;26;20011;-65
2024/04/16 12:37:50;;;;;;;3.83;1.10;;;;;;;;;;10761280;26;20019;-66
2024/04/16 12:42:46;;;;;;;6.28;1.20;;;;;;;;;;10767676;26;20004;-66
2024/04/16 12:47:42;;;;;;;5.72;2.10;;;;;;;;;;10765726;26;20089;-65
2024/04/16 12:52:36;;;;;;;7.60;1.48;;;;;;;;;;10769654;26;20019;-66
2024/04/16 12:57:31;;;;;;;6.93;1.75;;;;;;;;;;10766649;26;20004;-65
2024/04/16 13:02:25;;;;;;;3.40;1.00;;;;;;;;;;10763910;26;20444;-65
2024/04/16 13:07:20;;;;;;;5.88;1.05;;;;;;;;;;10764107;26;20015;-65
2024/04/16 13:12:15;;;;;;;2.15;1.63;;;;;;;;;;10766250;26;20406;-70
2024/04/16 13:17:09;;;;;;;1.30;0.90;;;;;;;;;;10766860;26;20041;-71
2024/04/16 13:22:03;;;;;;;8.25;1.75;;;;;;;;;;10764140;26;20004;-70
2024/04/16 13:26:57;;;;;;;6.47;1.05;;;;;;;;;;10761807;26;20001;-70
2024/04/16 13:31:51;;;;;;;3.35;0.80;;;;;;;;;;10764560;26;20032;-70
2024/04/16 13:36:45;;;;;;;4.38;0.80;;;;;;;;;;10765006;26;20004;-71
2024/04/16 13:41:39;;;;;;;4.38;1.60;;;;;;;;;;10763282;26;20340;-70
2024/04/16 13:46:33;;;;;;;3.70;0.80;;;;;;;;;;10764445;26;20048;-70
2024/04/16 13:51:27;;;;;;;3.03;0.80;;;;;;;;;;10765831;26;20008;-70
2024/04/16 13:56:21;;;;;;;6.90;1.02;;;;;;;;;;10764645;26;20012;-70
2024/04/16 14:01:16;;;;;;;2.60;0.60;;;;;;;;;;10765697;26;20019;-70
2024/04/16 14:06:10;;;;;;;2.72;0.57;;;;;;;;;;10771474;26;20015;-70
2024/04/16 14:11:05;;;;;;;4.47;0.95;;;;;;;;;;10765455;26;20004;-70
2024/04/16 14:15:59;;;;;;;2.45;0.95;;;;;;;;;;10774237;26;20028;-70
2024/04/16 14:20:53;;;;;;;2.15;0.65;;;;;;;;;;10760497;26;20317;-69
2024/04/16 14:25:47;;;;;;;11.82;0.80;;;;;;;;;;10760843;26;20004;-70
2024/04/16 14:30:42;;;;;;;6.10;0.88;;;;;;;;;;10759478;26;20000;-69
2024/04/16 14:35:36;;;;;;;5.97;0.82;;;;;;;;;;10762858;26;20085;-71
2024/04/16 14:40:31;;;;;;;4.68;0.55;;;;;;;;;;10761957;26;20004;-70
2024/04/16 14:45:26;;;;;;;1.88;0.40;;;;;;;;;;10765313;26;20012;-71
2024/04/16 14:50:39;;;;;;;6.82;0.77;;;;;;;;;;10772547;26;20073;-71
2024/04/16 14:55:33;;;;;;;2.85;0.60;;;;;;;;;;10766852;26;20081;-70
2024/04/16 15:00:28;;;;;;;4.15;0.43;;;;;;;;;;10770650;26;20016;-70
2024/04/16 15:05:22;;;;;;;2.22;0.55;;;;;;;;;;10767343;26;20004;-70
2024/04/16 15:10:16;;;;;;;7.38;0.90;;;;;;;;;;10769640;26;20012;-70
2024/04/16 15:15:10;;;;;;;3.45;0.60;;;;;;;;;;10774156;26;20036;-70
2024/04/16 15:20:06;;;;;;;5.53;0.70;;;;;;;;;;10764408;26;20036;-71
2024/04/16 15:25:00;;;;;;;6.15;0.88;;;;;;;;;;10769923;26;20011;-71
2024/04/16 15:29:55;;;;;;;6.70;0.90;;;;;;;;;;10765851;26;20001;-68
2024/04/16 15:34:49;;;;;;;0.68;0.50;;;;;;;;;;10784430;26;20076;-65
2024/04/16 15:39:44;;;;;;;3.95;0.60;;;;;;;;;;10761521;26;20004;-65
2024/04/16 15:44:39;;;;;;;8.13;0.90;;;;;;;;;;10760311;26;20004;-66
2024/04/16 15:49:33;;;;;;;3.95;0.70;;;;;;;;;;10775295;26;20004;-64
2024/04/16 15:54:28;;;;;;;2.78;0.90;;;;;;;;;;10779191;26;20016;-64
2024/04/16 15:59:22;;;;;;;1.77;0.60;;;;;;;;;;10774285;26;20004;-65
2024/04/16 16:04:18;;;;;;;2.42;0.60;;;;;;;;;;10772741;26;20018;-65
2024/04/16 16:09:17;;;;;;;1.95;0.70;;;;;;;;;;10771600;26;20012;-65
2024/04/16 16:14:11;;;;;;;2.45;0.90;;;;;;;;;;10780181;26;20004;-65
2024/04/16 16:19:07;;;;;;;2.25;0.60;;;;;;;;;;10778213;26;20326;-65
2024/04/16 16:24:01;;;;;;;4.40;0.50;;;;;;;;;;10781359;26;20004;-65
2024/04/16 16:28:55;;;;;;;4.35;0.60;;;;;;;;;;10773845;26;20004;-66
2024/04/16 16:33:49;;;;;;;3.97;0.60;;;;;;;;;;10765827;26;20081;-65
2024/04/16 16:38:43;;;;;;;6.10;0.52;;;;;;;;;;10750388;26;20028;-64
2024/04/16 16:43:38;;;;;;;0.75;0.45;;;;;;;;;;10765312;26;20037;-65
2024/04/16 16:48:32;;;;;;;0.75;0.50;;;;;;;;;;10757692;26;20010;-65
2024/04/16 16:53:27;;;;;;;4.65;0.65;;;;;;;;;;10757494;26;20016;-65
2024/04/16 16:58:21;;;;;;;3.88;0.82;;;;;;;;;;10766801;26;20005;-65
2024/04/16 17:03:21;;;;;;;11.65;0.95;;;;;;;;;;10741949;26;20081;-64
2024/04/16 17:08:18;;;;;;;2.45;0.60;;;;;;;;;;10765772;26;20007;-66
2024/04/16 17:13:14;;;;;;;3.03;0.75;;;;;;;;;;10769720;26;20012;-66
2024/04/16 17:18:09;;;;;;;8.25;1.33;;;;;;;;;;10763829;26;20022;-66
2024/04/16 17:23:04;;;;;;;3.30;0.80;;;;;;;;;;10758875;26;20004;-65
2024/04/16 17:27:58;;;;;;;3.42;0.70;;;;;;;;;;10769514;26;20077;-64
2024/04/16 17:32:52;;;;;;;5.25;0.60;;;;;;;;;;10760459;26;20111;-65
2024/04/16 17:37:46;;;;;;;3.65;0.70;;;;;;;;;;10751942;26;20019;-66
2024/04/16 17:42:41;;;;;;;3.17;0.50;;;;;;;;;;10757302;26;20537;-64
2024/04/16 17:47:38;;;;;;;5.50;0.90;;;;;;;;;;10753742;26;20015;-65
2024/04/16 17:52:33;;;;;;;1.25;0.60;;;;;;;;;;10740941;26;20059;-66
2024/04/16 17:57:28;;;;;;;2.10;0.70;;;;;;;;;;10761155;26;20010;-67
2024/04/16 18:02:24;;;;;;;9.82;1.65;;;;;;;;;;10762754;26;20584;-66
2024/04/16 18:07:19;;;;;;;17.35;2.03;;;;;;;;;;10762143;26;19999;-65
2024/04/16 18:12:12;;;;;;;23.38;5.68;;;;;;;;;;10781397;26;20003;-65
2024/04/16 18:17:06;;;;;;;24.98;4.05;;;;;;;;;;10762493;26;20444;-66
2024/04/16 18:22:00;;;;;;;26.65;3.85;;;;;;;;;;10755968;26;20019;-66
2024/04/16 18:26:58;;;;;;;31.55;3.67;;;;;;;;;;10750880;26;20024;-65
2024/04/16 18:31:54;;;;;;;19.92;2.97;;;;;;;;;;10749361;26;20048;-65
2024/04/16 18:36:49;;;;;;;18.00;3.08;;;;;;;;;;10759598;26;20081;-66
2024/04/16 18:41:43;;;;;;;13.55;2.83;;;;;;;;;;10752964;26;20004;-66
2024/04/16 18:46:36;;;;;;;26.58;2.50;;;;;;;;;;10756153;26;20004;-66
2024/04/16 18:51:31;;;;;;;11.93;2.25;;;;;;;;;;10737281;26;20001;-64
2024/04/16 18:56:30;;;;;;;14.73;2.60;;;;;;;;;;10750945;26;20081;-65
2024/04/16 19:01:24;;;;;;;10.85;2.67;;;;;;;;;;10750829;26;20032;-67
2024/04/16 19:06:19;;;;;;;21.75;2.60;;;;;;;;;;10762166;26;20081;-67
2024/04/16 19:11:13;;;;;;;17.85;4.00;;;;;;;;;;10764170;26;20018;-66
2024/04/16 19:16:09;;;;;;;16.48;3.10;;;;;;;;;;10772846;26;20414;-66
2024/04/16 19:21:04;;;;;;;14.60;2.60;;;;;;;;;;10762295;26;20009;-65
2024/04/16 19:25:59;;;;;;;10.93;2.65;;;;;;;;;;10761956;26;20000;-66
2024/04/16 19:30:54;;;;;;;15.70;3.00;;;;;;;;;;10755131;26;20103;-65
2024/04/16 19:35:48;;;;;;;29.27;2.72;;;;;;;;;;10770847;26;20003;-65
2024/04/16 19:40:43;;;;;;;13.93;2.60;;;;;;;;;;10801962;26;20011;-66
2024/04/16 19:45:37;;;;;;;14.05;3.92;;;;;;;;;;10801720;26;20031;-66
2024/04/16 19:50:31;;;;;;;27.20;4.55;;;;;;;;;;10798857;26;20035;-64
2024/04/16 19:55:25;;;;;;;8.25;2.22;;;;;;;;;;10816054;26;20016;-65
2024/04/16 20:00:21;;;;;;;12.48;2.70;;;;;;;;;;10823593;26;20077;-65
2024/04/16 20:05:15;;;;;;;21.83;3.90;;;;;;;;;;10819647;26;20008;-66
2024/04/16 20:10:10;;;;;;;14.63;4.05;;;;;;;;;;10812933;26;20020;-67
2024/04/16 20:15:06;;;;;;;14.32;2.90;;;;;;;;;;10802954;26;20012;-67
2024/04/16 20:20:00;;;;;;;24.45;3.25;;;;;;;;;;10815158;26;20018;-67
2024/04/16 20:24:56;;;;;;;10.02;2.72;;;;;;;;;;10801685;26;20443;-66
2024/04/16 20:29:51;;;;;;;10.75;2.47;;;;;;;;;;10809494;26;20077;-65
2024/04/16 20:34:45;;;;;;;15.20;2.15;;;;;;;;;;10815056;26;20020;-65
2024/04/16 20:39:45;;;;;;;11.23;3.88;;;;;;;;;;10784282;26;20004;-66
2024/04/16 20:44:40;;;;;;;11.35;3.33;;;;;;;;;;10795277;26;20036;-66
2024/04/16 20:49:33;;;;;;;11.77;2.50;;;;;;;;;;10787345;26;20003;-66
2024/04/16 20:54:27;;;;;;;14.18;4.07;;;;;;;;;;10780577;26;20061;-66
2024/04/16 20:59:22;;;;;;;16.70;3.35;;;;;;;;;;10787805;26;20007;-65
2024/04/16 21:04:17;;;;;;;13.15;3.08;;;;;;;;;;10792796;26;20004;-65
2024/04/16 21:09:11;;;;;;;24.85;4.03;;;;;;;;;;10807458;26;20448;-66
2024/04/16 21:14:06;;;;;;;13.90;3.30;;;;;;;;;;10801686;26;20000;-66
2024/04/16 21:19:01;;;;;;;18.50;5.05;;;;;;;;;;10762622;26;20040;-65
2024/04/16 21:23:57;;;;;;;13.85;3.33;;;;;;;;;;10762916;26;20004;-65
2024/04/16 21:28:52;;;;;;;23.08;3.95;;;;;;;;;;10762299;26;20085;-66
2024/04/16 21:33:46;;;;;;;10.77;3.03;;;;;;;;;;10755990;26;20008;-66
2024/04/16 21:38:40;;;;;;;8.88;2.83;;;;;;;;;;10756883;26;20015;-65
2024/04/16 21:43:34;;;;;;;16.17;4.13;;;;;;;;;;10765319;26;20075;-66
2024/04/16 21:48:28;;;;;;;15.27;3.25;;;;;;;;;;10787114;26;20452;-66
2024/04/16 21:53:23;;;;;;;18.63;3.50;;;;;;;;;;10778913;26;20046;-67
2024/04/16 21:58:17;;;;;;;13.73;2.65;;;;;;;;;;10789610;26;20032;-65
2024/04/16 22:03:11;;;;;;;14.18;2.58;;;;;;;;;;10788161;26;20379;-66
2024/04/16 22:08:06;;;;;;;14.30;2.70;;;;;;;;;;10785508;26;20016;-66
2024/04/16 22:13:00;;;;;;;19.00;2.55;;;;;;;;;;10785308;26;20425;-66
2024/04/16 22:17:54;;;;;;;13.38;2.67;;;;;;;;;;10772167;26;20005;-65
2024/04/16 22:22:49;;;;;;;10.48;2.58;;;;;;;;;;10762765;26;20004;-65
2024/04/16 22:27:44;;;;;;;12.27;2.75;;;;;;;;;;10762774;26;20080;-66
2024/04/16 22:32:38;;;;;;;8.93;3.33;;;;;;;;;;10763826;26;20331;-66
2024/04/16 22:37:33;;;;;;;9.05;1.98;;;;;;;;;;10755495;26;20012;-65
2024/04/16 22:42:27;;;;;;;7.38;2.17;;;;;;;;;;10761872;26;20004;-66
2024/04/16 22:47:21;;;;;;;14.70;4.60;;;;;;;;;;10761283;26;20032;-65
2024/04/16 22:52:16;;;;;;;10.35;2.58;;;;;;;;;;10756759;26;20004;-65
2024/04/16 22:57:11;;;;;;;15.25;2.35;;;;;;;;;;10774236;26;20076;-65
2024/04/16 23:02:05;;;;;;;21.13;3.72;;;;;;;;;;10756753;26;20007;-65
2024/04/16 23:07:00;;;;;;;7.60;1.98;;;;;;;;;;10763381;26;20016;-65
2024/04/16 23:11:54;;;;;;;12.23;2.03;;;;;;;;;;10784907;26;20013;-65
2024/04/16 23:16:49;;;;;;;9.88;2.40;;;;;;;;;;10770920;26;20431;-65
2024/04/16 23:21:45;;;;;;;7.40;1.98;;;;;;;;;;10769405;26;20436;-65
2024/04/16 23:26:39;;;;;;;7.32;2.20;;;;;;;;;;10768370;26;20016;-67
2024/04/16 23:31:34;;;;;;;9.05;2.70;;;;;;;;;;10766965;26;20036;-65
2024/04/16 23:36:30;;;;;;;19.30;2.80;;;;;;;;;;10767307;26;20004;-66
2024/04/16 23:41:25;;;;;;;8.43;2.80;;;;;;;;;;10766761;26;20452;-66
2024/04/16 23:46:20;;;;;;;6.13;1.80;;;;;;;;;;10767953;26;20015;-66
2024/04/16 23:51:15;;;;;;;9.95;3.40;;;;;;;;;;10771062;26;20015;-65
2024/04/16 23:56:11;;;;;;;10.40;2.38;;;;;;;;;;10766641;26;20417;-66
